sensor_id;sensor_type;location;lat;lon;timestamp;P1;durP1;ratioP1;P2;durP2;ratioP2
74808;SDS011;63338;39.544;2.596;2022-11-15T00:00:07;27.48;;;5.50;;
74808;SDS011;63338;39.544;2.596;2022-11-15T00:02:35;16.15;;;4.25;;
74808;SDS011;63338;39.544;2.596;2022-11-15T00:05:04;28.25;;;5.35;;
74808;SDS011;63338;39.544;2.596;2022-11-15T00:07:30;23.65;;;5.18;;
74808;SDS011;63338;39.544;2.596;2022-11-15T00:09:56;23.30;;;4.80;;
74808;SDS011;63338;39.544;2.596;2022-11-15T00:12:22;25.65;;;4.88;;
74808;SDS011;63338;39.544;2.596;2022-11-15T00:14:56;20.08;;;5.03;;
74808;SDS011;63338;39.544;2.596;2022-11-15T00:17:22;25.38;;;4.80;;
74808;SDS011;63338;39.544;2.596;2022-11-15T00:19:48;16.00;;;4.57;;
74808;SDS011;63338;39.544;2.596;2022-11-15T00:22:14;18.52;;;4.82;;
74808;SDS011;63338;39.544;2.596;2022-11-15T00:24:41;21.27;;;5.32;;
74808;SDS011;63338;39.544;2.596;2022-11-15T00:27:08;22.90;;;5.13;;
74808;SDS011;63338;39.544;2.596;2022-11-15T00:29:37;19.10;;;4.70;;
74808;SDS011;63338;39.544;2.596;2022-11-15T00:32:04;17.08;;;4.82;;
74808;SDS011;63338;39.544;2.596;2022-11-15T00:34:33;17.63;;;4.57;;
74808;SDS011;63338;39.544;2.596;2022-11-15T00:36:59;20.58;;;4.82;;
74808;SDS011;63338;39.544;2.596;2022-11-15T00:39:25;21.42;;;4.53;;
74808;SDS011;63338;39.544;2.596;2022-11-15T00:41:51;21.13;;;5.22;;
74808;SDS011;63338;39.544;2.596;2022-11-15T00:44:17;17.85;;;4.82;;
74808;SDS011;63338;39.544;2.596;2022-11-15T00:46:43;19.83;;;4.95;;
74808;SDS011;63338;39.544;2.596;2022-11-15T00:49:09;19.27;;;4.75;;
74808;SDS011;63338;39.544;2.596;2022-11-15T00:51:38;25.33;;;5.13;;
74808;SDS011;63338;39.544;2.596;2022-11-15T00:54:04;21.83;;;5.10;;
74808;SDS011;63338;39.544;2.596;2022-11-15T00:56:30;16.85;;;4.65;;
74808;SDS011;63338;39.544;2.596;2022-11-15T00:58:56;18.52;;;5.13;;
74808;SDS011;63338;39.544;2.596;2022-11-15T01:01:22;20.58;;;4.53;;
74808;SDS011;63338;39.544;2.596;2022-11-15T01:03:48;21.23;;;4.90;;
74808;SDS011;63338;39.544;2.596;2022-11-15T01:06:14;24.75;;;5.30;;
74808;SDS011;63338;39.544;2.596;2022-11-15T01:08:41;27.30;;;5.18;;
74808;SDS011;63338;39.544;2.596;2022-11-15T01:11:08;24.20;;;5.47;;
74808;SDS011;63338;39.544;2.596;2022-11-15T01:13:38;14.77;;;4.75;;
74808;SDS011;63338;39.544;2.596;2022-11-15T01:16:06;23.67;;;5.38;;
74808;SDS011;63338;39.544;2.596;2022-11-15T01:18:37;19.30;;;5.43;;
74808;SDS011;63338;39.544;2.596;2022-11-15T01:21:10;23.15;;;5.15;;
74808;SDS011;63338;39.544;2.596;2022-11-15T01:23:37;27.48;;;5.50;;
74808;SDS011;63338;39.544;2.596;2022-11-15T01:26:10;24.27;;;6.18;;
74808;SDS011;63338;39.544;2.596;2022-11-15T01:28:38;20.80;;;5.72;;
74808;SDS011;63338;39.544;2.596;2022-11-15T01:31:06;14.95;;;5.63;;
74808;SDS011;63338;39.544;2.596;2022-11-15T01:33:39;20.80;;;5.82;;
74808;SDS011;63338;39.544;2.596;2022-11-15T01:36:27;22.10;;;5.82;;
74808;SDS011;63338;39.544;2.596;2022-11-15T01:38:53;19.75;;;5.10;;
74808;SDS011;63338;39.544;2.596;2022-11-15T01:41:22;21.42;;;5.32;;
74808;SDS011;63338;39.544;2.596;2022-11-15T01:46:55;19.70;;;5.10;;
74808;SDS011;63338;39.544;2.596;2022-11-15T01:49:24;25.40;;;6.00;;
74808;SDS011;63338;39.544;2.596;2022-11-15T01:51:54;23.42;;;6.05;;
74808;SDS011;63338;39.544;2.596;2022-11-15T01:54:25;22.02;;;5.40;;
74808;SDS011;63338;39.544;2.596;2022-11-15T01:56:52;22.88;;;6.55;;
74808;SDS011;63338;39.544;2.596;2022-11-15T01:59:25;20.38;;;5.43;;
74808;SDS011;63338;39.544;2.596;2022-11-15T02:01:51;26.15;;;5.80;;
74808;SDS011;63338;39.544;2.596;2022-11-15T02:04:22;20.17;;;5.13;;
74808;SDS011;63338;39.544;2.596;2022-11-15T02:07:02;21.80;;;5.55;;
74808;SDS011;63338;39.544;2.596;2022-11-15T02:09:29;23.02;;;6.28;;
74808;SDS011;63338;39.544;2.596;2022-11-15T02:11:56;25.27;;;5.68;;
74808;SDS011;63338;39.544;2.596;2022-11-15T02:14:22;15.18;;;4.93;;
74808;SDS011;63338;39.544;2.596;2022-11-15T02:16:57;21.10;;;5.38;;
74808;SDS011;63338;39.544;2.596;2022-11-15T02:28:33;21.13;;;6.40;;
74808;SDS011;63338;39.544;2.596;2022-11-15T02:36:19;19.92;;;6.10;;
74808;SDS011;63338;39.544;2.596;2022-11-15T02:39:10;18.80;;;5.45;;
74808;SDS011;63338;39.544;2.596;2022-11-15T02:41:52;27.90;;;6.10;;
74808;SDS011;63338;39.544;2.596;2022-11-15T02:44:33;27.13;;;6.10;;
74808;SDS011;63338;39.544;2.596;2022-11-15T02:47:07;25.27;;;6.55;;
74808;SDS011;63338;39.544;2.596;2022-11-15T02:49:47;24.13;;;5.82;;
74808;SDS011;63338;39.544;2.596;2022-11-15T02:52:22;19.20;;;5.95;;
74808;SDS011;63338;39.544;2.596;2022-11-15T02:54:59;23.55;;;6.30;;
74808;SDS011;63338;39.544;2.596;2022-11-15T02:57:30;22.27;;;5.95;;
74808;SDS011;63338;39.544;2.596;2022-11-15T03:00:09;22.27;;;5.95;;
74808;SDS011;63338;39.544;2.596;2022-11-15T03:05:37;16.98;;;5.40;;
74808;SDS011;63338;39.544;2.596;2022-11-15T03:16:20;22.25;;;5.63;;
74808;SDS011;63338;39.544;2.596;2022-11-15T03:19:16;21.70;;;5.90;;
74808;SDS011;63338;39.544;2.596;2022-11-15T03:21:55;27.38;;;6.47;;
74808;SDS011;63338;39.544;2.596;2022-11-15T03:24:25;21.00;;;5.97;;
74808;SDS011;63338;39.544;2.596;2022-11-15T03:26:55;23.15;;;5.60;;
74808;SDS011;63338;39.544;2.596;2022-11-15T03:29:26;27.98;;;6.03;;
74808;SDS011;63338;39.544;2.596;2022-11-15T03:31:59;18.55;;;5.80;;
74808;SDS011;63338;39.544;2.596;2022-11-15T03:40:40;17.75;;;5.90;;
74808;SDS011;63338;39.544;2.596;2022-11-15T03:45:47;18.90;;;6.63;;
74808;SDS011;63338;39.544;2.596;2022-11-15T03:48:30;21.05;;;5.95;;
74808;SDS011;63338;39.544;2.596;2022-11-15T03:51:02;25.92;;;5.53;;
74808;SDS011;63338;39.544;2.596;2022-11-15T03:53:32;21.00;;;6.00;;
74808;SDS011;63338;39.544;2.596;2022-11-15T03:56:04;18.70;;;5.78;;
74808;SDS011;63338;39.544;2.596;2022-11-15T03:58:30;20.83;;;5.68;;
74808;SDS011;63338;39.544;2.596;2022-11-15T04:01:00;20.42;;;6.05;;
74808;SDS011;63338;39.544;2.596;2022-11-15T04:03:26;20.17;;;5.78;;
74808;SDS011;63338;39.544;2.596;2022-11-15T04:05:52;19.58;;;5.18;;
74808;SDS011;63338;39.544;2.596;2022-11-15T04:08:20;22.30;;;6.55;;
74808;SDS011;63338;39.544;2.596;2022-11-15T04:10:48;21.50;;;6.38;;
74808;SDS011;63338;39.544;2.596;2022-11-15T04:13:18;15.60;;;5.60;;
74808;SDS011;63338;39.544;2.596;2022-11-15T04:15:44;16.15;;;5.95;;
74808;SDS011;63338;39.544;2.596;2022-11-15T04:18:14;19.27;;;5.32;;
74808;SDS011;63338;39.544;2.596;2022-11-15T04:20:42;17.90;;;6.03;;
74808;SDS011;63338;39.544;2.596;2022-11-15T04:23:27;19.48;;;6.32;;
74808;SDS011;63338;39.544;2.596;2022-11-15T04:26:12;15.95;;;5.85;;
74808;SDS011;63338;39.544;2.596;2022-11-15T04:28:41;20.00;;;6.20;;
74808;SDS011;63338;39.544;2.596;2022-11-15T04:31:26;25.45;;;6.65;;
74808;SDS011;63338;39.544;2.596;2022-11-15T04:33:52;16.02;;;5.55;;
74808;SDS011;63338;39.544;2.596;2022-11-15T04:36:19;21.60;;;6.60;;
74808;SDS011;63338;39.544;2.596;2022-11-15T04:39:11;22.15;;;5.90;;
74808;SDS011;63338;39.544;2.596;2022-11-15T04:41:40;23.00;;;5.60;;
74808;SDS011;63338;39.544;2.596;2022-11-15T04:44:09;20.55;;;5.78;;
74808;SDS011;63338;39.544;2.596;2022-11-15T04:46:35;25.27;;;5.95;;
74808;SDS011;63338;39.544;2.596;2022-11-15T04:49:08;18.45;;;5.80;;
74808;SDS011;63338;39.544;2.596;2022-11-15T04:51:34;17.08;;;5.43;;
74808;SDS011;63338;39.544;2.596;2022-11-15T04:54:00;14.57;;;5.32;;
74808;SDS011;63338;39.544;2.596;2022-11-15T04:56:32;20.85;;;5.47;;
74808;SDS011;63338;39.544;2.596;2022-11-15T04:58:58;18.52;;;5.25;;
74808;SDS011;63338;39.544;2.596;2022-11-15T05:01:24;17.95;;;5.05;;
74808;SDS011;63338;39.544;2.596;2022-11-15T05:03:51;17.30;;;5.25;;
74808;SDS011;63338;39.544;2.596;2022-11-15T05:06:35;14.48;;;4.85;;
74808;SDS011;63338;39.544;2.596;2022-11-15T05:09:02;16.85;;;4.97;;
74808;SDS011;63338;39.544;2.596;2022-11-15T05:11:31;14.98;;;5.40;;
74808;SDS011;63338;39.544;2.596;2022-11-15T05:14:01;16.33;;;5.60;;
74808;SDS011;63338;39.544;2.596;2022-11-15T05:16:27;18.13;;;5.30;;
74808;SDS011;63338;39.544;2.596;2022-11-15T05:18:56;18.73;;;5.10;;
74808;SDS011;63338;39.544;2.596;2022-11-15T05:21:22;13.40;;;5.03;;
74808;SDS011;63338;39.544;2.596;2022-11-15T05:23:49;19.52;;;4.78;;
74808;SDS011;63338;39.544;2.596;2022-11-15T05:26:15;17.48;;;5.28;;
74808;SDS011;63338;39.544;2.596;2022-11-15T05:28:46;16.60;;;5.22;;
74808;SDS011;63338;39.544;2.596;2022-11-15T05:31:13;18.80;;;5.72;;
74808;SDS011;63338;39.544;2.596;2022-11-15T05:33:41;15.52;;;4.55;;
74808;SDS011;63338;39.544;2.596;2022-11-15T05:36:20;22.83;;;5.72;;
74808;SDS011;63338;39.544;2.596;2022-11-15T05:38:58;13.77;;;5.22;;
74808;SDS011;63338;39.544;2.596;2022-11-15T05:41:44;13.80;;;4.63;;
74808;SDS011;63338;39.544;2.596;2022-11-15T05:44:16;15.55;;;5.55;;
74808;SDS011;63338;39.544;2.596;2022-11-15T05:46:48;19.30;;;5.45;;
74808;SDS011;63338;39.544;2.596;2022-11-15T05:49:19;13.77;;;5.30;;
74808;SDS011;63338;39.544;2.596;2022-11-15T05:54:18;15.05;;;4.80;;
74808;SDS011;63338;39.544;2.596;2022-11-15T05:56:49;16.75;;;4.65;;
74808;SDS011;63338;39.544;2.596;2022-11-15T05:59:15;14.98;;;4.90;;
74808;SDS011;63338;39.544;2.596;2022-11-15T06:01:42;11.63;;;4.38;;
74808;SDS011;63338;39.544;2.596;2022-11-15T06:04:11;12.95;;;4.68;;
74808;SDS011;63338;39.544;2.596;2022-11-15T06:06:37;15.35;;;4.65;;
74808;SDS011;63338;39.544;2.596;2022-11-15T06:09:06;11.05;;;4.55;;
74808;SDS011;63338;39.544;2.596;2022-11-15T06:11:32;12.55;;;4.38;;
74808;SDS011;63338;39.544;2.596;2022-11-15T06:13:58;15.48;;;4.60;;
74808;SDS011;63338;39.544;2.596;2022-11-15T06:16:25;13.95;;;4.30;;
74808;SDS011;63338;39.544;2.596;2022-11-15T06:18:54;18.60;;;4.45;;
74808;SDS011;63338;39.544;2.596;2022-11-15T06:21:24;14.63;;;4.57;;
74808;SDS011;63338;39.544;2.596;2022-11-15T06:23:56;14.80;;;4.25;;
74808;SDS011;63338;39.544;2.596;2022-11-15T06:26:22;14.70;;;4.85;;
74808;SDS011;63338;39.544;2.596;2022-11-15T06:28:48;11.27;;;4.47;;
74808;SDS011;63338;39.544;2.596;2022-11-15T06:31:14;15.93;;;4.72;;
74808;SDS011;63338;39.544;2.596;2022-11-15T06:33:43;18.38;;;4.72;;
74808;SDS011;63338;39.544;2.596;2022-11-15T06:36:10;12.27;;;5.10;;
74808;SDS011;63338;39.544;2.596;2022-11-15T06:38:43;12.55;;;5.20;;
74808;SDS011;63338;39.544;2.596;2022-11-15T06:41:10;14.93;;;5.03;;
74808;SDS011;63338;39.544;2.596;2022-11-15T06:43:38;12.52;;;5.05;;
74808;SDS011;63338;39.544;2.596;2022-11-15T06:46:05;14.15;;;5.25;;
74808;SDS011;63338;39.544;2.596;2022-11-15T06:48:35;14.50;;;4.93;;
74808;SDS011;63338;39.544;2.596;2022-11-15T06:51:04;14.73;;;5.00;;
74808;SDS011;63338;39.544;2.596;2022-11-15T06:53:31;13.93;;;5.32;;
74808;SDS011;63338;39.544;2.596;2022-11-15T06:56:01;12.50;;;5.10;;
74808;SDS011;63338;39.544;2.596;2022-11-15T06:58:29;16.33;;;4.97;;
74808;SDS011;63338;39.544;2.596;2022-11-15T07:00:59;19.10;;;5.13;;
74808;SDS011;63338;39.544;2.596;2022-11-15T07:03:27;16.88;;;4.72;;
74808;SDS011;63338;39.544;2.596;2022-11-15T07:05:54;13.93;;;5.13;;
74808;SDS011;63338;39.544;2.596;2022-11-15T07:08:21;15.15;;;4.80;;
74808;SDS011;63338;39.544;2.596;2022-11-15T07:10:52;13.00;;;4.93;;
74808;SDS011;63338;39.544;2.596;2022-11-15T07:13:18;26.25;;;6.00;;
74808;SDS011;63338;39.544;2.596;2022-11-15T07:15:44;13.30;;;3.95;;
74808;SDS011;63338;39.544;2.596;2022-11-15T07:18:10;15.20;;;4.38;;
74808;SDS011;63338;39.544;2.596;2022-11-15T07:20:36;11.95;;;3.80;;
74808;SDS011;63338;39.544;2.596;2022-11-15T07:23:06;15.63;;;4.40;;
74808;SDS011;63338;39.544;2.596;2022-11-15T07:25:35;16.98;;;4.10;;
74808;SDS011;63338;39.544;2.596;2022-11-15T07:28:01;15.77;;;4.50;;
74808;SDS011;63338;39.544;2.596;2022-11-15T07:30:28;14.35;;;3.50;;
74808;SDS011;63338;39.544;2.596;2022-11-15T07:33:10;18.83;;;4.35;;
74808;SDS011;63338;39.544;2.596;2022-11-15T07:35:58;11.63;;;3.33;;
74808;SDS011;63338;39.544;2.596;2022-11-15T07:38:27;10.73;;;3.50;;
74808;SDS011;63338;39.544;2.596;2022-11-15T07:40:57;15.23;;;3.40;;
74808;SDS011;63338;39.544;2.596;2022-11-15T07:43:24;8.20;;;2.95;;
74808;SDS011;63338;39.544;2.596;2022-11-15T07:46:03;14.13;;;2.75;;
74808;SDS011;63338;39.544;2.596;2022-11-15T07:48:35;11.75;;;3.10;;
74808;SDS011;63338;39.544;2.596;2022-11-15T07:51:06;11.88;;;3.05;;
74808;SDS011;63338;39.544;2.596;2022-11-15T07:53:35;17.05;;;3.17;;
74808;SDS011;63338;39.544;2.596;2022-11-15T07:56:01;13.52;;;2.95;;
74808;SDS011;63338;39.544;2.596;2022-11-15T07:58:27;13.75;;;2.58;;
74808;SDS011;63338;39.544;2.596;2022-11-15T08:00:56;11.73;;;2.80;;
74808;SDS011;63338;39.544;2.596;2022-11-15T08:03:22;10.20;;;2.45;;
74808;SDS011;63338;39.544;2.596;2022-11-15T08:05:51;11.70;;;2.90;;
74808;SDS011;63338;39.544;2.596;2022-11-15T08:08:18;10.60;;;2.67;;
74808;SDS011;63338;39.544;2.596;2022-11-15T08:10:44;9.93;;;2.60;;
74808;SDS011;63338;39.544;2.596;2022-11-15T08:13:11;15.02;;;2.70;;
74808;SDS011;63338;39.544;2.596;2022-11-15T08:15:38;9.93;;;2.40;;
74808;SDS011;63338;39.544;2.596;2022-11-15T08:18:13;12.98;;;3.17;;
74808;SDS011;63338;39.544;2.596;2022-11-15T08:20:49;13.38;;;2.75;;
74808;SDS011;63338;39.544;2.596;2022-11-15T08:23:18;11.23;;;2.67;;
74808;SDS011;63338;39.544;2.596;2022-11-15T08:26:07;10.80;;;3.10;;
74808;SDS011;63338;39.544;2.596;2022-11-15T08:28:36;9.15;;;2.35;;
74808;SDS011;63338;39.544;2.596;2022-11-15T08:31:06;10.32;;;2.20;;
74808;SDS011;63338;39.544;2.596;2022-11-15T08:33:32;10.70;;;2.45;;
74808;SDS011;63338;39.544;2.596;2022-11-15T08:36:01;12.18;;;2.22;;
74808;SDS011;63338;39.544;2.596;2022-11-15T08:38:33;10.23;;;2.42;;
74808;SDS011;63338;39.544;2.596;2022-11-15T08:41:00;10.20;;;1.90;;
74808;SDS011;63338;39.544;2.596;2022-11-15T08:43:40;9.07;;;2.00;;
74808;SDS011;63338;39.544;2.596;2022-11-15T08:46:07;12.32;;;1.75;;
74808;SDS011;63338;39.544;2.596;2022-11-15T08:48:40;11.90;;;2.50;;
74808;SDS011;63338;39.544;2.596;2022-11-15T08:51:12;8.07;;;2.15;;
74808;SDS011;63338;39.544;2.596;2022-11-15T08:53:41;13.07;;;2.45;;
74808;SDS011;63338;39.544;2.596;2022-11-15T08:56:09;10.18;;;2.30;;
74808;SDS011;63338;39.544;2.596;2022-11-15T09:02:13;10.80;;;2.40;;
74808;SDS011;63338;39.544;2.596;2022-11-15T09:04:40;17.83;;;3.08;;
74808;SDS011;63338;39.544;2.596;2022-11-15T09:07:10;18.08;;;2.70;;
74808;SDS011;63338;39.544;2.596;2022-11-15T09:09:42;12.88;;;2.63;;
74808;SDS011;63338;39.544;2.596;2022-11-15T09:15:56;9.68;;;2.53;;
74808;SDS011;63338;39.544;2.596;2022-11-15T09:18:52;11.35;;;2.72;;
74808;SDS011;63338;39.544;2.596;2022-11-15T09:21:38;13.18;;;3.13;;
74808;SDS011;63338;39.544;2.596;2022-11-15T09:24:07;16.95;;;2.78;;
74808;SDS011;63338;39.544;2.596;2022-11-15T09:26:59;8.50;;;2.40;;
74808;SDS011;63338;39.544;2.596;2022-11-15T09:29:26;11.60;;;2.28;;
74808;SDS011;63338;39.544;2.596;2022-11-15T09:31:54;9.48;;;2.40;;
74808;SDS011;63338;39.544;2.596;2022-11-15T09:34:59;9.15;;;2.20;;
74808;SDS011;63338;39.544;2.596;2022-11-15T09:37:31;9.07;;;2.03;;
74808;SDS011;63338;39.544;2.596;2022-11-15T09:40:00;6.93;;;1.92;;
74808;SDS011;63338;39.544;2.596;2022-11-15T09:43:12;8.65;;;1.75;;
74808;SDS011;63338;39.544;2.596;2022-11-15T09:46:30;5.95;;;1.20;;
74808;SDS011;63338;39.544;2.596;2022-11-15T09:49:28;6.45;;;1.13;;
74808;SDS011;63338;39.544;2.596;2022-11-15T09:52:01;5.38;;;1.30;;
74808;SDS011;63338;39.544;2.596;2022-11-15T09:54:43;7.00;;;1.10;;
74808;SDS011;63338;39.544;2.596;2022-11-15T09:57:15;5.43;;;0.95;;
74808;SDS011;63338;39.544;2.596;2022-11-15T09:59:55;12.10;;;0.98;;
74808;SDS011;63338;39.544;2.596;2022-11-15T10:05:47;6.20;;;0.98;;
74808;SDS011;63338;39.544;2.596;2022-11-15T10:11:17;6.20;;;1.10;;
74808;SDS011;63338;39.544;2.596;2022-11-15T10:13:52;7.45;;;1.52;;
74808;SDS011;63338;39.544;2.596;2022-11-15T10:22:00;7.07;;;1.20;;
74808;SDS011;63338;39.544;2.596;2022-11-15T10:25:24;4.53;;;1.20;;
74808;SDS011;63338;39.544;2.596;2022-11-15T10:30:33;4.60;;;1.00;;
74808;SDS011;63338;39.544;2.596;2022-11-15T10:33:17;8.00;;;1.30;;
74808;SDS011;63338;39.544;2.596;2022-11-15T10:35:47;8.48;;;1.27;;
74808;SDS011;63338;39.544;2.596;2022-11-15T10:38:14;6.45;;;1.77;;
74808;SDS011;63338;39.544;2.596;2022-11-15T10:40:42;5.43;;;1.17;;
74808;SDS011;63338;39.544;2.596;2022-11-15T10:45:46;12.50;;;2.33;;
74808;SDS011;63338;39.544;2.596;2022-11-15T10:50:56;15.55;;;3.33;;
74808;SDS011;63338;39.544;2.596;2022-11-15T10:53:23;12.63;;;3.20;;
74808;SDS011;63338;39.544;2.596;2022-11-15T10:56:40;17.55;;;3.83;;
74808;SDS011;63338;39.544;2.596;2022-11-15T10:59:18;16.30;;;3.78;;
74808;SDS011;63338;39.544;2.596;2022-11-15T11:08:28;13.32;;;3.17;;
74808;SDS011;63338;39.544;2.596;2022-11-15T11:10:54;12.88;;;3.25;;
74808;SDS011;63338;39.544;2.596;2022-11-15T11:20:00;14.35;;;2.83;;
74808;SDS011;63338;39.544;2.596;2022-11-15T11:25:29;13.98;;;2.38;;
74808;SDS011;63338;39.544;2.596;2022-11-15T11:48:57;11.80;;;2.80;;
74808;SDS011;63338;39.544;2.596;2022-11-15T11:51:51;11.40;;;2.55;;
74808;SDS011;63338;39.544;2.596;2022-11-15T11:58:48;11.70;;;2.78;;
74808;SDS011;63338;39.544;2.596;2022-11-15T12:01:44;14.27;;;2.40;;
74808;SDS011;63338;39.544;2.596;2022-11-15T12:09:38;11.57;;;2.65;;
74808;SDS011;63338;39.544;2.596;2022-11-15T12:15:03;7.78;;;2.40;;
74808;SDS011;63338;39.544;2.596;2022-11-15T12:17:43;14.00;;;2.60;;
74808;SDS011;63338;39.544;2.596;2022-11-15T12:20:24;14.77;;;2.10;;
74808;SDS011;63338;39.544;2.596;2022-11-15T12:22:58;11.57;;;2.28;;
74808;SDS011;63338;39.544;2.596;2022-11-15T12:31:20;14.20;;;2.67;;
74808;SDS011;63338;39.544;2.596;2022-11-15T12:34:01;11.93;;;2.50;;
74808;SDS011;63338;39.544;2.596;2022-11-15T12:39:00;11.23;;;2.58;;
74808;SDS011;63338;39.544;2.596;2022-11-15T12:41:35;8.85;;;2.47;;
74808;SDS011;63338;39.544;2.596;2022-11-15T12:44:10;8.57;;;2.50;;
74808;SDS011;63338;39.544;2.596;2022-11-15T13:07:56;10.55;;;2.90;;
74808;SDS011;63338;39.544;2.596;2022-11-15T13:10:42;17.13;;;2.63;;
74808;SDS011;63338;39.544;2.596;2022-11-15T13:13:09;9.88;;;2.42;;
74808;SDS011;63338;39.544;2.596;2022-11-15T13:18:34;11.48;;;2.30;;
74808;SDS011;63338;39.544;2.596;2022-11-15T13:21:23;10.30;;;2.78;;
74808;SDS011;63338;39.544;2.596;2022-11-15T13:24:21;9.30;;;2.60;;
74808;SDS011;63338;39.544;2.596;2022-11-15T13:26:48;12.48;;;2.50;;
74808;SDS011;63338;39.544;2.596;2022-11-15T13:29:18;13.75;;;2.40;;
74808;SDS011;63338;39.544;2.596;2022-11-15T13:31:45;14.52;;;2.78;;
74808;SDS011;63338;39.544;2.596;2022-11-15T13:37:04;5.93;;;1.30;;
74808;SDS011;63338;39.544;2.596;2022-11-15T13:39:43;4.65;;;1.15;;
74808;SDS011;63338;39.544;2.596;2022-11-15T13:42:18;4.22;;;1.10;;
74808;SDS011;63338;39.544;2.596;2022-11-15T13:44:55;5.78;;;1.40;;
74808;SDS011;63338;39.544;2.596;2022-11-15T13:47:29;8.27;;;1.30;;
74808;SDS011;63338;39.544;2.596;2022-11-15T13:50:00;5.05;;;1.17;;
74808;SDS011;63338;39.544;2.596;2022-11-15T13:52:34;10.90;;;1.30;;
74808;SDS011;63338;39.544;2.596;2022-11-15T13:55:25;4.22;;;0.90;;
74808;SDS011;63338;39.544;2.596;2022-11-15T13:58:02;9.10;;;1.38;;
74808;SDS011;63338;39.544;2.596;2022-11-15T14:00:37;7.68;;;1.45;;
74808;SDS011;63338;39.544;2.596;2022-11-15T14:03:19;4.72;;;1.00;;
74808;SDS011;63338;39.544;2.596;2022-11-15T14:08:41;6.85;;;1.40;;
74808;SDS011;63338;39.544;2.596;2022-11-15T14:11:26;6.38;;;1.20;;
74808;SDS011;63338;39.544;2.596;2022-11-15T14:14:00;6.53;;;1.40;;
74808;SDS011;63338;39.544;2.596;2022-11-15T14:16:51;6.15;;;1.35;;
74808;SDS011;63338;39.544;2.596;2022-11-15T14:22:12;8.93;;;1.92;;
74808;SDS011;63338;39.544;2.596;2022-11-15T14:25:07;10.90;;;2.38;;
74808;SDS011;63338;39.544;2.596;2022-11-15T14:30:52;15.50;;;3.33;;
74808;SDS011;63338;39.544;2.596;2022-11-15T14:35:54;12.45;;;3.35;;
74808;SDS011;63338;39.544;2.596;2022-11-15T14:38:32;17.58;;;3.03;;
74808;SDS011;63338;39.544;2.596;2022-11-15T14:41:21;15.68;;;3.10;;
74808;SDS011;63338;39.544;2.596;2022-11-15T14:44:30;20.02;;;7.07;;
74808;SDS011;63338;39.544;2.596;2022-11-15T14:47:02;15.80;;;4.75;;
74808;SDS011;63338;39.544;2.596;2022-11-15T14:49:42;16.52;;;3.72;;
74808;SDS011;63338;39.544;2.596;2022-11-15T14:52:22;18.77;;;3.92;;
74808;SDS011;63338;39.544;2.596;2022-11-15T14:55:56;12.90;;;3.20;;
74808;SDS011;63338;39.544;2.596;2022-11-15T14:58:22;15.02;;;3.80;;
74808;SDS011;63338;39.544;2.596;2022-11-15T15:00:51;19.00;;;3.72;;
74808;SDS011;63338;39.544;2.596;2022-11-15T15:03:19;14.57;;;3.53;;
74808;SDS011;63338;39.544;2.596;2022-11-15T15:05:46;19.48;;;3.67;;
74808;SDS011;63338;39.544;2.596;2022-11-15T15:08:14;14.75;;;3.65;;
74808;SDS011;63338;39.544;2.596;2022-11-15T15:10:44;15.05;;;3.58;;
74808;SDS011;63338;39.544;2.596;2022-11-15T15:15:43;13.63;;;3.63;;
74808;SDS011;63338;39.544;2.596;2022-11-15T15:18:10;15.88;;;3.08;;
74808;SDS011;63338;39.544;2.596;2022-11-15T15:20:37;20.98;;;3.88;;
74808;SDS011;63338;39.544;2.596;2022-11-15T15:23:15;13.77;;;3.70;;
74808;SDS011;63338;39.544;2.596;2022-11-15T15:25:43;14.00;;;3.63;;
74808;SDS011;63338;39.544;2.596;2022-11-15T15:28:11;15.90;;;4.82;;
74808;SDS011;63338;39.544;2.596;2022-11-15T15:30:46;16.27;;;3.78;;
74808;SDS011;63338;39.544;2.596;2022-11-15T15:33:12;17.45;;;3.17;;
74808;SDS011;63338;39.544;2.596;2022-11-15T15:35:38;14.25;;;3.15;;
74808;SDS011;63338;39.544;2.596;2022-11-15T15:38:05;17.08;;;3.45;;
74808;SDS011;63338;39.544;2.596;2022-11-15T15:40:36;12.90;;;3.85;;
74808;SDS011;63338;39.544;2.596;2022-11-15T15:43:45;18.90;;;4.28;;
74808;SDS011;63338;39.544;2.596;2022-11-15T15:46:15;19.70;;;4.35;;
74808;SDS011;63338;39.544;2.596;2022-11-15T15:48:46;20.30;;;3.47;;
74808;SDS011;63338;39.544;2.596;2022-11-15T15:51:15;17.65;;;3.65;;
74808;SDS011;63338;39.544;2.596;2022-11-15T15:53:41;16.58;;;3.80;;
74808;SDS011;63338;39.544;2.596;2022-11-15T15:56:08;20.00;;;4.13;;
74808;SDS011;63338;39.544;2.596;2022-11-15T15:58:41;19.00;;;3.70;;
74808;SDS011;63338;39.544;2.596;2022-11-15T16:01:08;17.20;;;3.95;;
74808;SDS011;63338;39.544;2.596;2022-11-15T16:03:34;14.25;;;4.10;;
74808;SDS011;63338;39.544;2.596;2022-11-15T16:06:03;17.92;;;4.20;;
74808;SDS011;63338;39.544;2.596;2022-11-15T16:08:36;27.95;;;4.45;;
74808;SDS011;63338;39.544;2.596;2022-11-15T16:11:03;18.17;;;4.45;;
74808;SDS011;63338;39.544;2.596;2022-11-15T16:13:34;20.63;;;4.10;;
74808;SDS011;63338;39.544;2.596;2022-11-15T16:16:11;21.45;;;4.68;;
74808;SDS011;63338;39.544;2.596;2022-11-15T16:18:39;24.60;;;4.60;;
74808;SDS011;63338;39.544;2.596;2022-11-15T16:21:05;17.05;;;4.10;;
74808;SDS011;63338;39.544;2.596;2022-11-15T16:23:59;16.40;;;4.32;;
74808;SDS011;63338;39.544;2.596;2022-11-15T16:26:43;18.00;;;4.50;;
74808;SDS011;63338;39.544;2.596;2022-11-15T16:29:41;23.27;;;5.15;;
74808;SDS011;63338;39.544;2.596;2022-11-15T16:33:06;15.68;;;4.97;;
74808;SDS011;63338;39.544;2.596;2022-11-15T16:35:35;20.48;;;4.93;;
74808;SDS011;63338;39.544;2.596;2022-11-15T16:38:13;15.80;;;4.53;;
74808;SDS011;63338;39.544;2.596;2022-11-15T16:40:41;18.80;;;4.80;;
74808;SDS011;63338;39.544;2.596;2022-11-15T16:43:12;14.52;;;4.35;;
74808;SDS011;63338;39.544;2.596;2022-11-15T16:45:38;16.13;;;4.70;;
74808;SDS011;63338;39.544;2.596;2022-11-15T16:48:27;17.33;;;4.05;;
74808;SDS011;63338;39.544;2.596;2022-11-15T16:50:59;17.05;;;4.07;;
74808;SDS011;63338;39.544;2.596;2022-11-15T16:53:33;18.65;;;3.63;;
74808;SDS011;63338;39.544;2.596;2022-11-15T16:56:30;17.35;;;3.58;;
74808;SDS011;63338;39.544;2.596;2022-11-15T16:58:57;12.68;;;4.03;;
74808;SDS011;63338;39.544;2.596;2022-11-15T17:01:28;11.80;;;3.60;;
74808;SDS011;63338;39.544;2.596;2022-11-15T17:04:00;20.52;;;3.63;;
74808;SDS011;63338;39.544;2.596;2022-11-15T17:06:41;14.05;;;3.30;;
74808;SDS011;63338;39.544;2.596;2022-11-15T17:09:18;14.77;;;3.40;;
74808;SDS011;63338;39.544;2.596;2022-11-15T17:11:52;13.07;;;3.78;;
74808;SDS011;63338;39.544;2.596;2022-11-15T17:14:25;14.60;;;3.20;;
74808;SDS011;63338;39.544;2.596;2022-11-15T17:16:54;16.48;;;3.15;;
74808;SDS011;63338;39.544;2.596;2022-11-15T17:19:29;15.02;;;3.45;;
74808;SDS011;63338;39.544;2.596;2022-11-15T17:22:03;14.98;;;3.05;;
74808;SDS011;63338;39.544;2.596;2022-11-15T17:24:30;15.13;;;2.85;;
74808;SDS011;63338;39.544;2.596;2022-11-15T17:26:56;14.63;;;2.67;;
74808;SDS011;63338;39.544;2.596;2022-11-15T17:29:35;13.32;;;3.15;;
74808;SDS011;63338;39.544;2.596;2022-11-15T17:32:02;15.38;;;2.80;;
74808;SDS011;63338;39.544;2.596;2022-11-15T17:34:29;10.27;;;2.80;;
74808;SDS011;63338;39.544;2.596;2022-11-15T17:37:00;12.05;;;3.03;;
74808;SDS011;63338;39.544;2.596;2022-11-15T17:39:26;10.05;;;2.92;;
74808;SDS011;63338;39.544;2.596;2022-11-15T17:42:02;11.25;;;2.63;;
74808;SDS011;63338;39.544;2.596;2022-11-15T17:44:41;10.23;;;2.38;;
74808;SDS011;63338;39.544;2.596;2022-11-15T17:47:10;13.95;;;2.75;;
74808;SDS011;63338;39.544;2.596;2022-11-15T17:49:37;13.00;;;2.85;;
74808;SDS011;63338;39.544;2.596;2022-11-15T17:52:06;15.10;;;3.50;;
74808;SDS011;63338;39.544;2.596;2022-11-15T17:54:35;18.80;;;3.13;;